Time;durP1;ratioP1;P1;durP2;ratioP2;P2;SDS_P1;SDS_P2;PMS_P1;PMS_P2;Temp;Humidity;BMP_temperature;BMP_pressure;BME280_temperature;BME280_humidity;BME280_pressure;Samples;Min_cycle;Max_cycle;Signal;HPM_P1;HPM_P2
2023/07/18 00:01:24;;;;;;;17.90;9.85;;;20.90;65.60;;;;;;4939017;28;20038;-71
2023/07/18 00:03:51;;;;;;;12.82;8.25;;;20.50;68.10;;;;;;4948279;28;20031;-71
2023/07/18 00:06:19;;;;;;;16.13;8.27;;;19.80;70.20;;;;;;4951696;28;20027;-71
2023/07/18 00:08:47;;;;;;;16.48;8.15;;;19.30;73.60;;;;;;4948272;28;20042;-71
2023/07/18 00:11:14;;;;;;;10.82;7.00;;;19.80;74.80;;;;;;4951400;28;20606;-71
2023/07/18 00:13:42;;;;;;;13.20;7.38;;;20.70;70.40;;;;;;4951317;28;20023;-71
2023/07/18 00:16:09;;;;;;;14.40;8.30;;;21.20;67.80;;;;;;4950216;28;20027;-71
2023/07/18 00:18:37;;;;;;;16.02;8.50;;;20.80;69.60;;;;;;4950147;28;20590;-71
2023/07/18 00:21:05;;;;;;;14.13;7.85;;;21.20;66.40;;;;;;4954354;28;20023;-71
2023/07/18 00:23:32;;;;;;;12.85;7.40;;;20.80;68.60;;;;;;4956783;28;20102;-74
2023/07/18 00:26:00;;;;;;;15.75;8.88;;;21.40;66.30;;;;;;4952387;28;20483;-72
2023/07/18 00:28:28;;;;;;;14.88;8.00;;;21.40;65.00;;;;;;4951293;28;20094;-73
2023/07/18 00:30:55;;;;;;;14.93;8.23;;;21.10;67.80;;;;;;4956731;28;20097;-72
2023/07/18 00:33:23;;;;;;;12.32;8.52;;;21.00;67.40;;;;;;4932178;28;20035;-73
2023/07/18 00:35:51;;;;;;;13.00;8.20;;;20.80;66.70;;;;;;4945257;28;20024;-72
2023/07/18 00:38:20;;;;;;;12.32;8.10;;;20.40;69.70;;;;;;4948991;28;20551;-70
2023/07/18 00:40:50;;;;;;;17.48;10.63;;;20.00;70.00;;;;;;4955259;28;20027;-71
2023/07/18 00:43:17;;;;;;;15.85;11.15;;;19.40;71.10;;;;;;4944521;28;20034;-70
2023/07/18 00:45:48;;;;;;;16.35;11.48;;;19.30;73.10;;;;;;4951651;28;20035;-71
2023/07/18 00:48:16;;;;;;;21.65;16.30;;;19.50;74.20;;;;;;4954503;28;20019;-72
2023/07/18 00:50:43;;;;;;;26.77;19.98;;;19.90;72.10;;;;;;4946502;28;20114;-71
2023/07/18 00:53:10;;;;;;;33.83;21.83;;;20.20;72.20;;;;;;4952870;28;20068;-72
2023/07/18 00:55:39;;;;;;;28.77;19.88;;;20.40;70.40;;;;;;4953884;28;20046;-71
2023/07/18 00:58:08;;;;;;;21.50;16.08;;;20.90;68.30;;;;;;4949895;28;20385;-70
2023/07/18 01:00:35;;;;;;;20.00;14.32;;;20.30;70.20;;;;;;4954686;28;20023;-70
2023/07/18 01:03:02;;;;;;;17.95;11.48;;;19.80;72.00;;;;;;4949127;28;20501;-70
2023/07/18 01:05:31;;;;;;;15.35;10.95;;;20.50;70.70;;;;;;4953191;28;20062;-70
2023/07/18 01:07:58;;;;;;;12.25;9.65;;;20.80;68.90;;;;;;4952119;28;20392;-70
2023/07/18 01:10:27;;;;;;;16.52;10.75;;;21.00;67.00;;;;;;4950267;28;20035;-72
2023/07/18 01:12:56;;;;;;;18.98;10.00;;;21.00;68.50;;;;;;4950172;28;20054;-71
2023/07/18 01:15:25;;;;;;;15.05;7.60;;;21.50;68.50;;;;;;4952943;28;20050;-70
2023/07/18 01:17:53;;;;;;;15.88;9.30;;;21.80;65.90;;;;;;4955223;28;20023;-71
2023/07/18 01:20:27;;;;;;;15.90;9.93;;;21.70;65.30;;;;;;4948295;28;20038;-71
2023/07/18 01:22:57;;;;;;;10.68;6.47;;;21.70;65.40;;;;;;4950768;28;20054;-72
2023/07/18 01:25:24;;;;;;;12.70;8.05;;;21.80;64.90;;;;;;4948671;28;20061;-73
2023/07/18 01:27:55;;;;;;;12.15;7.25;;;22.10;63.20;;;;;;4953024;28;20023;-71
2023/07/18 01:30:27;;;;;;;10.68;7.05;;;22.40;63.00;;;;;;4956345;28;20085;-73
2023/07/18 01:32:55;;;;;;;10.68;6.78;;;23.00;60.40;;;;;;4950268;28;20493;-72
2023/07/18 01:35:25;;;;;;;14.15;8.38;;;22.30;60.60;;;;;;4951758;28;20342;-70
2023/07/18 01:37:53;;;;;;;15.60;9.23;;;21.10;64.70;;;;;;4950322;28;20119;-71
2023/07/18 01:40:22;;;;;;;12.90;7.85;;;20.70;67.30;;;;;;4949500;28;20062;-72
2023/07/18 01:42:51;;;;;;;14.55;8.77;;;20.60;69.70;;;;;;4950647;28;20039;-72
2023/07/18 01:45:19;;;;;;;13.00;8.60;;;20.40;70.60;;;;;;4973822;28;20061;-72
2023/07/18 01:47:48;;;;;;;13.73;8.57;;;20.30;70.20;;;;;;4952845;28;20039;-72
2023/07/18 01:50:16;;;;;;;13.85;7.75;;;20.30;68.90;;;;;;4948992;28;20043;-73
2023/07/18 01:52:43;;;;;;;14.05;6.70;;;20.20;69.10;;;;;;4950162;28;20027;-72
2023/07/18 01:55:11;;;;;;;7.85;6.00;;;20.00;69.90;;;;;;4945168;28;20549;-72
2023/07/18 01:57:41;;;;;;;9.35;6.32;;;20.20;70.90;;;;;;4955818;28;20046;-73
2023/07/18 02:00:11;;;;;;;7.65;4.95;;;20.20;69.80;;;;;;4946203;28;20035;-72
2023/07/18 02:02:39;;;;;;;8.98;5.53;;;20.10;70.90;;;;;;4951053;28;20034;-71
2023/07/18 02:05:08;;;;;;;10.00;6.03;;;20.70;71.60;;;;;;4945857;28;20129;-71
2023/07/18 02:07:35;;;;;;;14.10;5.97;;;20.80;73.40;;;;;;4943621;28;20031;-69
2023/07/18 02:10:03;;;;;;;11.85;5.15;;;21.10;68.70;;;;;;4947351;28;20039;-71
2023/07/18 02:12:30;;;;;;;7.28;3.50;;;21.10;68.60;;;;;;4950412;28;20121;-70
2023/07/18 02:14:57;;;;;;;7.97;4.05;;;21.50;65.50;;;;;;4950373;28;20027;-70
2023/07/18 02:17:25;;;;;;;10.10;4.65;;;22.10;64.70;;;;;;4950319;28;20392;-70
2023/07/18 02:19:52;;;;;;;6.38;3.88;;;22.70;63.70;;;;;;4949501;28;20027;-72
2023/07/18 02:22:21;;;;;;;10.05;4.43;;;23.70;62.80;;;;;;4950564;28;20512;-72
2023/07/18 02:24:48;;;;;;;9.82;3.22;;;24.50;57.60;;;;;;4949218;28;20058;-70
2023/07/18 02:27:18;;;;;;;6.18;2.90;;;24.40;57.10;;;;;;4949047;28;20063;-71
2023/07/18 02:29:46;;;;;;;8.30;3.00;;;24.30;55.80;;;;;;4949302;28;20118;-73
2023/07/18 02:32:16;;;;;;;6.55;3.75;;;24.10;57.20;;;;;;4954648;28;20110;-71
2023/07/18 02:34:45;;;;;;;6.82;3.15;;;24.10;57.50;;;;;;4949643;28;20553;-70
2023/07/18 02:37:13;;;;;;;5.97;3.20;;;24.60;56.40;;;;;;4955393;28;20129;-73
2023/07/18 02:39:42;;;;;;;4.20;2.50;;;24.80;56.80;;;;;;4948295;28;20030;-73
2023/07/18 02:42:10;;;;;;;6.03;3.28;;;24.80;54.80;;;;;;4953024;28;20393;-73
2023/07/18 02:44:37;;;;;;;5.60;2.83;;;24.90;54.80;;;;;;4946698;28;20019;-72
2023/07/18 02:47:05;;;;;;;11.38;3.28;;;24.80;55.20;;;;;;4951966;28;20019;-73
2023/07/18 02:49:33;;;;;;;6.70;3.53;;;24.70;56.10;;;;;;4950542;28;20054;-73
2023/07/18 02:52:01;;;;;;;4.25;2.88;;;25.20;54.10;;;;;;4952592;28;20552;-72
2023/07/18 02:54:28;;;;;;;6.20;2.30;;;25.00;54.70;;;;;;4947879;28;20389;-73
2023/07/18 02:56:56;;;;;;;7.68;2.53;;;24.70;54.00;;;;;;4947742;28;20512;-73
2023/07/18 02:59:24;;;;;;;8.90;2.80;;;24.70;52.90;;;;;;4951754;28;20062;-73
2023/07/18 03:01:54;;;;;;;7.75;3.00;;;24.70;53.50;;;;;;4947933;28;20027;-73
2023/07/18 03:04:22;;;;;;;5.93;3.10;;;24.80;53.70;;;;;;4944671;28;20035;-73
2023/07/18 03:06:52;;;;;;;4.90;2.38;;;24.60;53.30;;;;;;4948912;28;20081;-73
2023/07/18 03:09:23;;;;;;;7.57;3.00;;;24.50;54.00;;;;;;4949353;28;20485;-74
2023/07/18 03:11:50;;;;;;;9.80;2.92;;;24.20;54.10;;;;;;4951457;28;20027;-75
2023/07/18 03:14:21;;;;;;;4.72;2.22;;;23.90;55.00;;;;;;4952584;28;20027;-73
2023/07/18 03:16:48;;;;;;;7.35;2.63;;;23.80;56.80;;;;;;4952096;28;20062;-72
2023/07/18 03:19:16;;;;;;;5.70;2.65;;;24.10;56.20;;;;;;4952760;28;20377;-72
2023/07/18 03:21:46;;;;;;;4.50;2.33;;;24.10;56.10;;;;;;4950039;28;20115;-73
2023/07/18 03:24:13;;;;;;;6.07;2.80;;;24.10;55.30;;;;;;4952020;28;20028;-72
2023/07/18 03:26:41;;;;;;;4.13;2.05;;;23.90;56.50;;;;;;4950251;28;20035;-73
2023/07/18 03:29:09;;;;;;;9.88;2.42;;;23.70;55.10;;;;;;4958111;28;20420;-72
2023/07/18 03:31:39;;;;;;;4.47;2.10;;;23.40;56.50;;;;;;4951219;28;20050;-73
2023/07/18 03:34:07;;;;;;;7.05;2.08;;;23.30;57.00;;;;;;4951465;28;20027;-72
2023/07/18 03:36:35;;;;;;;7.57;2.10;;;23.10;57.40;;;;;;4951451;28;20058;-73
2023/07/18 03:39:03;;;;;;;4.07;1.80;;;22.80;58.40;;;;;;4947877;28;20073;-73
2023/07/18 03:41:30;;;;;;;5.53;2.28;;;22.60;57.40;;;;;;4950143;28;20031;-72
2023/07/18 03:43:58;;;;;;;7.28;2.00;;;22.30;58.10;;;;;;4947508;28;20027;-72
2023/07/18 03:46:25;;;;;;;4.63;2.20;;;22.30;58.30;;;;;;4951199;28;20031;-72
2023/07/18 03:48:52;;;;;;;6.18;2.80;;;22.10;59.50;;;;;;4948953;28;20039;-73
2023/07/18 03:51:20;;;;;;;6.25;2.08;;;22.00;58.70;;;;;;4949608;28;20101;-73
2023/07/18 03:53:47;;;;;;;6.45;2.25;;;21.80;58.70;;;;;;4944108;28;20063;-74
2023/07/18 03:56:15;;;;;;;6.57;2.22;;;21.60;57.30;;;;;;4950769;28;20051;-73
2023/07/18 03:58:43;;;;;;;5.32;1.92;;;21.40;54.30;;;;;;4949151;28;20161;-73
2023/07/18 04:01:12;;;;;;;5.35;1.95;;;21.30;52.80;;;;;;4949763;28;20027;-73
2023/07/18 04:03:41;;;;;;;4.93;1.75;;;21.20;53.80;;;;;;4952015;28;20027;-73
2023/07/18 04:06:08;;;;;;;5.07;1.77;;;21.20;54.30;;;;;;4952504;28;20409;-73
2023/07/18 04:08:36;;;;;;;2.75;1.02;;;21.20;54.70;;;;;;4949373;28;20047;-74
2023/07/18 04:11:03;;;;;;;2.65;1.00;;;21.20;49.10;;;;;;4949144;28;20028;-73
2023/07/18 04:13:30;;;;;;;4.63;0.93;;;21.30;46.20;;;;;;4947749;28;20030;-73
2023/07/18 04:15:59;;;;;;;1.67;0.70;;;21.50;44.20;;;;;;4948222;28;20492;-70
2023/07/18 04:18:26;;;;;;;1.98;0.70;;;21.60;42.20;;;;;;4947856;28;20106;-71
2023/07/18 04:21:03;;;;;;;3.92;0.70;;;21.70;40.80;;;;;;4951325;28;20038;-72
2023/07/18 04:23:31;;;;;;;2.75;0.65;;;21.70;41.40;;;;;;4946458;28;20150;-71
2023/07/18 04:26:03;;;;;;;2.03;0.60;;;21.60;41.20;;;;;;4948331;28;20131;-70
2023/07/18 04:28:36;;;;;;;2.15;0.70;;;21.50;40.90;;;;;;4948410;28;20039;-71
2023/07/18 04:31:03;;;;;;;3.35;0.70;;;21.60;41.20;;;;;;4951314;28;20074;-72
2023/07/18 04:33:36;;;;;;;1.10;0.60;;;21.60;37.50;;;;;;4933684;28;20027;-72
2023/07/18 04:36:04;;;;;;;2.45;0.70;;;21.60;36.70;;;;;;4950845;28;20135;-72
2023/07/18 04:38:32;;;;;;;1.25;0.50;;;21.60;37.40;;;;;;4949256;28;20393;-71
2023/07/18 04:41:00;;;;;;;0.73;0.40;;;21.50;37.60;;;;;;4948571;28;20397;-71
2023/07/18 04:43:27;;;;;;;4.97;0.77;;;21.50;36.20;;;;;;4952040;28;20067;-72
2023/07/18 04:45:55;;;;;;;1.83;0.88;;;21.50;36.10;;;;;;4954256;28;20032;-72
2023/07/18 04:48:22;;;;;;;1.58;0.47;;;21.50;36.00;;;;;;4943400;28;20043;-72
2023/07/18 04:50:56;;;;;;;1.10;0.50;;;21.50;36.30;;;;;;4938506;28;20131;-72
2023/07/18 04:53:26;;;;;;;3.42;0.70;;;21.40;36.40;;;;;;4949011;28;20041;-72
2023/07/18 04:55:55;;;;;;;0.90;0.60;;;21.50;37.60;;;;;;4950792;28;20152;-70
2023/07/18 04:58:27;;;;;;;2.75;0.70;;;21.50;36.30;;;;;;4948786;28;20102;-72
2023/07/18 05:00:56;;;;;;;2.42;0.82;;;21.50;37.10;;;;;;4948045;28;20067;-71
2023/07/18 05:03:25;;;;;;;0.98;0.60;;;21.50;36.80;;;;;;4952279;28;20750;-71
2023/07/18 05:05:52;;;;;;;1.70;0.60;;;21.50;36.50;;;;;;4943500;28;21875;-70
2023/07/18 05:08:21;;;;;;;2.08;0.68;;;21.50;36.60;;;;;;4956082;28;20063;-70
2023/07/18 05:10:49;;;;;;;1.20;0.65;;;21.40;36.70;;;;;;4957936;28;20043;-70
2023/07/18 05:13:16;;;;;;;1.40;0.70;;;21.30;37.70;;;;;;4952696;28;20028;-70
2023/07/18 05:15:44;;;;;;;1.80;0.57;;;21.40;36.90;;;;;;4951154;28;20031;-69
2023/07/18 05:18:11;;;;;;;1.77;0.65;;;21.40;36.90;;;;;;4953761;28;20400;-70
2023/07/18 05:20:43;;;;;;;1.30;0.88;;;21.50;37.40;;;;;;4949128;28;20097;-71
2023/07/18 05:23:10;;;;;;;2.38;0.80;;;21.50;37.40;;;;;;4945250;28;20043;-72
2023/07/18 05:25:38;;;;;;;1.63;0.60;;;21.50;37.20;;;;;;4952847;28;20031;-71
2023/07/18 05:28:05;;;;;;;2.30;0.80;;;21.50;37.50;;;;;;4949264;28;20330;-70
2023/07/18 05:30:32;;;;;;;1.35;0.70;;;21.40;37.60;;;;;;4947509;28;20059;-69
2023/07/18 05:32:59;;;;;;;1.02;0.90;;;21.30;38.70;;;;;;4950547;28;20019;-70
2023/07/18 05:35:27;;;;;;;3.90;0.60;;;21.40;36.70;;;;;;4945410;28;20028;-70
2023/07/18 05:37:56;;;;;;;1.15;0.60;;;21.30;36.70;;;;;;4948895;28;20428;-72
2023/07/18 05:40:23;;;;;;;2.97;0.68;;;21.20;37.00;;;;;;4948285;28;20097;-72
2023/07/18 05:42:51;;;;;;;1.77;0.60;;;21.10;37.70;;;;;;4953114;28;20027;-72
2023/07/18 05:45:18;;;;;;;1.52;0.70;;;21.10;38.10;;;;;;4950228;28;20041;-72
2023/07/18 05:47:46;;;;;;;2.15;0.70;;;21.20;38.40;;;;;;4942681;28;20031;-71
2023/07/18 05:50:14;;;;;;;3.05;0.60;;;21.20;38.50;;;;;;4951353;28;20035;-71
2023/07/18 05:52:41;;;;;;;2.17;0.70;;;21.30;38.40;;;;;;4950546;28;20135;-71
2023/07/18 05:55:09;;;;;;;2.28;0.90;;;21.20;38.30;;;;;;4947782;28;20031;-70
2023/07/18 05:57:37;;;;;;;1.77;0.70;;;21.20;38.60;;;;;;4951099;28;20051;-71
2023/07/18 06:00:10;;;;;;;2.03;0.73;;;21.20;38.90;;;;;;4938751;28;20082;-71
2023/07/18 06:02:37;;;;;;;2.40;0.75;;;21.20;38.40;;;;;;4947966;28;20478;-71
2023/07/18 06:05:07;;;;;;;1.75;0.73;;;21.30;38.50;;;;;;4952578;28;20046;-71
2023/07/18 06:07:34;;;;;;;1.10;0.63;;;21.30;39.20;;;;;;4959057;28;20045;-71
2023/07/18 06:10:03;;;;;;;2.42;0.63;;;21.40;39.00;;;;;;4947613;28;21431;-71
2023/07/18 06:12:30;;;;;;;2.50;0.75;;;21.50;38.40;;;;;;4956463;28;20031;-73
2023/07/18 06:14:58;;;;;;;1.00;0.52;;;21.40;39.00;;;;;;4950875;28;20041;-72
2023/07/18 06:17:25;;;;;;;3.25;0.63;;;21.50;39.10;;;;;;4950766;28;20114;-71
2023/07/18 06:19:52;;;;;;;1.30;0.77;;;21.60;39.20;;;;;;4950608;28;20149;-70
2023/07/18 06:22:20;;;;;;;2.80;1.20;;;21.60;39.00;;;;;;4956372;28;20030;-71
2023/07/18 06:24:48;;;;;;;1.10;0.60;;;21.70;39.20;;;;;;4946294;28;20019;-71
2023/07/18 06:27:15;;;;;;;1.77;0.80;;;21.70;38.40;;;;;;4947428;28;20031;-72
2023/07/18 06:29:44;;;;;;;1.63;0.70;;;21.50;39.40;;;;;;4950595;28;20047;-72
2023/07/18 06:32:12;;;;;;;2.42;0.80;;;21.30;39.90;;;;;;4950500;28;20031;-72
2023/07/18 06:34:40;;;;;;;1.60;0.50;;;21.00;40.40;;;;;;4948560;28;20102;-72
2023/07/18 06:37:08;;;;;;;1.88;0.68;;;21.00;41.50;;;;;;4951795;28;20497;-72
2023/07/18 06:39:36;;;;;;;2.28;0.73;;;20.90;42.20;;;;;;4951703;28;20031;-71
2023/07/18 06:42:05;;;;;;;1.10;0.68;;;20.80;43.40;;;;;;4951616;28;20098;-72
2023/07/18 06:44:33;;;;;;;1.48;0.55;;;20.70;43.00;;;;;;4951427;28;20454;-72
2023/07/18 06:47:00;;;;;;;4.75;0.85;;;20.70;40.80;;;;;;4953436;28;20023;-74
2023/07/18 06:49:27;;;;;;;2.40;0.65;;;20.70;41.10;;;;;;4949458;28;20122;-72
2023/07/18 06:51:55;;;;;;;4.85;1.15;;;20.60;41.10;;;;;;4948201;28;20031;-72
2023/07/18 06:54:22;;;;;;;1.90;0.70;;;20.60;40.40;;;;;;4948564;28;20486;-72
2023/07/18 06:56:50;;;;;;;1.10;0.60;;;20.40;41.30;;;;;;4949812;28;20058;-73
2023/07/18 06:59:17;;;;;;;1.85;0.90;;;20.20;42.70;;;;;;4949516;28;20035;-73
2023/07/18 07:01:44;;;;;;;1.58;0.75;;;20.00;43.10;;;;;;4952110;28;20535;-72
2023/07/18 07:04:12;;;;;;;1.73;0.85;;;19.80;42.80;;;;;;4950209;28;20069;-72
2023/07/18 07:06:41;;;;;;;3.22;1.10;;;19.70;42.40;;;;;;4952347;28;20090;-72
2023/07/18 07:09:12;;;;;;;2.50;1.20;;;19.80;42.40;;;;;;4946552;28;20054;-71
2023/07/18 07:11:40;;;;;;;2.03;1.00;;;19.60;42.30;;;;;;4947799;28;20024;-72
2023/07/18 07:14:07;;;;;;;5.70;1.55;;;19.40;43.00;;;;;;4949937;28;20043;-72
2023/07/18 07:16:35;;;;;;;2.75;1.15;;;19.30;43.30;;;;;;4952999;28;20031;-72
2023/07/18 07:19:03;;;;;;;7.47;4.80;;;19.20;43.30;;;;;;4948684;28;20385;-75
2023/07/18 07:21:30;;;;;;;6.20;3.70;;;19.10;43.70;;;;;;4959152;28;20489;-72
2023/07/18 07:23:58;;;;;;;20.27;11.45;;;18.90;44.20;;;;;;4949689;28;20023;-71
2023/07/18 07:26:26;;;;;;;35.50;19.10;;;18.70;45.10;;;;;;4950172;28;20027;-72
2023/07/18 07:28:53;;;;;;;15.90;9.10;;;18.50;45.50;;;;;;4946575;28;20139;-73
2023/07/18 07:31:20;;;;;;;12.07;4.65;;;18.50;45.80;;;;;;4946952;28;20046;-73
2023/07/18 07:33:48;;;;;;;3.33;2.35;;;18.40;46.00;;;;;;4947740;28;20154;-72
2023/07/18 07:36:15;;;;;;;5.03;1.42;;;18.20;46.20;;;;;;4949310;28;20038;-73
2023/07/18 07:38:43;;;;;;;3.75;1.25;;;18.00;46.50;;;;;;4952253;28;20031;-74
2023/07/18 07:41:10;;;;;;;4.82;1.60;;;18.00;46.70;;;;;;4951893;28;20034;-72
2023/07/18 07:43:38;;;;;;;4.40;1.33;;;17.80;47.80;;;;;;4947763;28;20491;-72
2023/07/18 07:46:05;;;;;;;4.28;1.77;;;17.60;48.90;;;;;;4950306;28;20046;-73
2023/07/18 07:48:33;;;;;;;3.75;1.42;;;17.50;49.70;;;;;;4947128;28;20046;-72
2023/07/18 07:51:03;;;;;;;6.25;1.60;;;17.30;49.60;;;;;;4952662;28;20042;-71
2023/07/18 07:53:31;;;;;;;5.85;2.03;;;17.20;51.00;;;;;;4946989;28;20020;-72
2023/07/18 07:55:58;;;;;;;6.05;1.75;;;17.00;50.70;;;;;;4965205;28;20051;-72
2023/07/18 07:58:26;;;;;;;3.92;1.90;;;17.00;51.70;;;;;;4945721;28;20477;-72
2023/07/18 08:00:53;;;;;;;6.00;2.38;;;16.80;51.40;;;;;;4944067;28;20022;-71
2023/07/18 08:03:20;;;;;;;7.70;2.60;;;16.70;51.50;;;;;;4946598;28;20121;-70
2023/07/18 08:05:48;;;;;;;4.88;2.20;;;16.70;51.40;;;;;;4950145;28;20031;-70
2023/07/18 08:08:15;;;;;;;5.75;2.47;;;16.60;52.90;;;;;;4943066;28;20035;-71
2023/07/18 08:10:52;;;;;;;4.95;2.28;;;16.50;53.90;;;;;;4947158;28;20055;-72
2023/07/18 08:13:19;;;;;;;3.93;2.00;;;16.30;55.80;;;;;;4944075;28;20146;-71
2023/07/18 08:15:46;;;;;;;4.55;2.55;;;16.30;52.90;;;;;;4943008;28;21523;-71
2023/07/18 08:18:14;;;;;;;5.07;2.13;;;16.20;55.30;;;;;;4939745;28;20454;-71
2023/07/18 08:20:41;;;;;;;5.60;2.67;;;16.00;55.30;;;;;;4942783;28;20035;-72
2023/07/18 08:23:09;;;;;;;5.30;2.30;;;15.90;55.40;;;;;;4941192;28;20649;-72
2023/07/18 08:25:36;;;;;;;7.03;2.80;;;15.70;56.60;;;;;;4942619;28;20477;-70
2023/07/18 08:28:03;;;;;;;10.10;3.08;;;15.60;57.30;;;;;;4943200;28;20031;-72
2023/07/18 08:30:31;;;;;;;5.35;2.92;;;15.50;57.10;;;;;;4942410;28;20070;-71
2023/07/18 08:32:58;;;;;;;7.47;3.85;;;15.40;58.10;;;;;;4948030;28;20102;-71
2023/07/18 08:35:25;;;;;;;7.88;3.65;;;15.20;58.40;;;;;;4949889;28;20027;-73
2023/07/18 08:37:53;;;;;;;8.60;4.57;;;15.10;59.20;;;;;;4950831;28;20476;-73
2023/07/18 08:40:21;;;;;;;7.55;4.22;;;15.10;58.20;;;;;;4951797;28;20035;-72
2023/07/18 08:42:49;;;;;;;10.90;5.45;;;15.10;57.20;;;;;;4955038;28;20377;-74
2023/07/18 08:45:17;;;;;;;9.15;4.43;;;15.10;56.20;;;;;;4955143;28;20093;-72
2023/07/18 08:47:47;;;;;;;8.85;5.20;;;15.40;55.00;;;;;;4954156;28;20058;-72
2023/07/18 08:50:14;;;;;;;11.90;6.50;;;15.50;54.70;;;;;;4952743;28;20406;-72
2023/07/18 08:52:41;;;;;;;24.83;11.25;;;15.50;55.00;;;;;;4955379;28;20038;-72
2023/07/18 08:55:10;;;;;;;30.23;14.48;;;15.50;54.00;;;;;;4952610;28;20686;-72
2023/07/18 08:57:39;;;;;;;31.50;14.20;;;15.40;54.40;;;;;;4968582;28;20050;-71
2023/07/18 09:00:08;;;;;;;15.77;7.20;;;15.50;53.50;;;;;;4946848;28;20925;-71
2023/07/18 09:02:37;;;;;;;13.38;5.80;;;15.70;52.40;;;;;;4952143;28;20039;-71
2023/07/18 09:05:05;;;;;;;7.28;4.13;;;15.70;52.10;;;;;;4948300;28;20027;-70
2023/07/18 09:07:36;;;;;;;8.27;2.90;;;15.70;52.10;;;;;;4946434;28;20627;-71
2023/07/18 09:10:04;;;;;;;11.10;4.20;;;15.80;51.90;;;;;;4942845;28;20062;-71
2023/07/18 09:12:35;;;;;;;6.32;2.60;;;15.70;52.20;;;;;;4941615;28;20544;-70
2023/07/18 09:15:02;;;;;;;7.35;2.72;;;15.70;51.90;;;;;;4945279;28;20042;-70
2023/07/18 09:17:31;;;;;;;6.22;2.90;;;15.70;51.70;;;;;;4951172;28;20035;-70
2023/07/18 09:20:07;;;;;;;9.73;2.78;;;15.70;52.00;;;;;;4950992;28;20035;-71
2023/07/18 09:22:36;;;;;;;4.53;2.20;;;15.60;52.40;;;;;;4951126;28;20066;-71
2023/07/18 09:25:04;;;;;;;5.07;2.40;;;15.50;53.10;;;;;;4949418;28;20023;-71
2023/07/18 09:27:31;;;;;;;6.72;3.00;;;15.50;52.30;;;;;;4952193;28;20029;-71
2023/07/18 09:29:59;;;;;;;8.00;3.78;;;15.40;52.50;;;;;;4941895;28;20047;-71
2023/07/18 09:32:26;;;;;;;7.15;2.50;;;15.50;52.10;;;;;;4936408;28;20032;-71
2023/07/18 09:34:55;;;;;;;4.78;2.20;;;15.40;52.20;;;;;;4942487;28;20030;-71
2023/07/18 09:37:23;;;;;;;6.88;2.65;;;15.30;52.70;;;;;;4933696;28;20042;-71
2023/07/18 09:39:51;;;;;;;4.43;2.20;;;15.10;53.30;;;;;;4950759;28;20170;-72
2023/07/18 09:42:21;;;;;;;3.72;2.15;;;14.80;53.60;;;;;;4945397;28;20031;-70
2023/07/18 09:44:55;;;;;;;6.03;2.20;;;14.90;54.00;;;;;;4942214;28;20126;-70
2023/07/18 09:47:23;;;;;;;5.82;2.17;;;14.80;53.50;;;;;;4947538;28;20560;-71
2023/07/18 09:49:50;;;;;;;4.20;2.40;;;14.80;55.10;;;;;;4948747;28;20079;-70
2023/07/18 09:52:25;;;;;;;12.15;2.50;;;14.70;55.10;;;;;;4946235;28;20027;-71
2023/07/18 09:54:53;;;;;;;6.50;2.75;;;14.50;55.70;;;;;;4946181;28;20403;-71
2023/07/18 09:57:22;;;;;;;8.13;2.97;;;14.30;56.60;;;;;;4945938;28;20046;-70
2023/07/18 09:59:50;;;;;;;5.50;3.10;;;14.10;57.20;;;;;;4949725;28;20520;-71
2023/07/18 10:02:18;;;;;;;6.80;3.47;;;14.00;57.40;;;;;;4967612;28;20038;-74
2023/07/18 10:04:48;;;;;;;7.53;3.58;;;14.10;57.10;;;;;;4950628;28;20123;-71
2023/07/18 10:07:17;;;;;;;7.78;4.10;;;13.90;58.00;;;;;;4950858;28;20038;-72
2023/07/18 10:09:44;;;;;;;6.13;3.78;;;13.80;58.10;;;;;;4942497;28;20039;-71
2023/07/18 10:12:12;;;;;;;8.60;3.88;;;13.80;57.70;;;;;;4949723;28;20039;-74
2023/07/18 10:14:59;;;;;;;5.50;3.00;;;14.00;56.90;;;;;;4957408;28;20037;-73
2023/07/18 10:17:37;;;;;;;6.35;3.00;;;14.40;55.20;;;;;;4954561;28;20485;-73
2023/07/18 10:20:12;;;;;;;5.72;3.03;;;14.40;55.40;;;;;;4949785;28;20039;-73
2023/07/18 10:22:48;;;;;;;6.68;2.75;;;14.40;55.80;;;;;;4949986;28;20385;-72
2023/07/18 10:25:18;;;;;;;5.57;2.95;;;14.80;54.30;;;;;;4950702;28;20035;-73
2023/07/18 10:27:47;;;;;;;5.72;2.33;;;14.90;54.20;;;;;;4951220;28;20027;-71
2023/07/18 10:30:17;;;;;;;6.40;2.90;;;15.10;53.40;;;;;;4949793;28;20416;-72
2023/07/18 10:32:52;;;;;;;4.53;2.60;;;15.20;53.00;;;;;;4951049;28;20046;-72
2023/07/18 10:35:21;;;;;;;6.63;2.45;;;15.10;53.60;;;;;;4949004;28;20035;-70
2023/07/18 10:37:53;;;;;;;4.13;2.42;;;15.10;53.60;;;;;;4948601;28;20065;-70
2023/07/18 10:40:37;;;;;;;3.75;2.15;;;15.20;53.10;;;;;;4950348;28;20035;-72
2023/07/18 10:43:16;;;;;;;4.55;2.47;;;15.30;53.10;;;;;;4951661;28;20114;-71
2023/07/18 10:45:43;;;;;;;10.48;2.70;;;15.10;53.80;;;;;;4950319;28;20548;-72
2023/07/18 10:48:15;;;;;;;6.10;2.40;;;14.90;54.20;;;;;;4946034;28;20415;-72
2023/07/18 10:50:44;;;;;;;5.07;2.45;;;14.90;54.10;;;;;;4949434;28;20039;-73
2023/07/18 10:53:23;;;;;;;4.20;1.98;;;15.10;53.20;;;;;;4933563;28;20063;-72
2023/07/18 10:55:52;;;;;;;3.47;1.95;;;15.20;53.10;;;;;;4951353;28;20059;-72
2023/07/18 10:58:20;;;;;;;3.65;2.28;;;15.10;53.30;;;;;;4949622;28;20031;-73
2023/07/18 11:00:50;;;;;;;3.75;2.33;;;15.10;53.40;;;;;;4949722;28;20055;-71
2023/07/18 11:03:35;;;;;;;5.70;2.85;;;14.90;53.60;;;;;;4941769;28;20132;-70
2023/07/18 11:06:06;;;;;;;4.43;2.80;;;15.00;53.50;;;;;;4947499;28;20115;-70
2023/07/18 11:08:34;;;;;;;5.55;3.10;;;14.90;53.80;;;;;;4938264;28;20039;-69
2023/07/18 11:11:04;;;;;;;9.50;2.90;;;14.80;54.20;;;;;;4947265;28;20504;-70
2023/07/18 11:13:37;;;;;;;5.78;2.63;;;14.60;54.60;;;;;;4936087;28;20078;-71
2023/07/18 11:16:08;;;;;;;7.97;3.72;;;14.60;55.10;;;;;;4950395;28;20039;-70
2023/07/18 11:18:41;;;;;;;5.60;3.20;;;14.40;56.50;;;;;;4951227;28;20035;-69
2023/07/18 11:21:10;;;;;;;7.20;3.28;;;14.00;59.30;;;;;;4951786;28;20031;-69
2023/07/18 11:23:38;;;;;;;7.22;3.55;;;13.70;60.80;;;;;;4948361;28;20054;-71
2023/07/18 11:26:19;;;;;;;5.80;3.10;;;13.60;60.40;;;;;;4946060;28;20443;-70
2023/07/18 11:28:55;;;;;;;6.68;3.80;;;13.60;61.00;;;;;;4951580;28;20128;-71
2023/07/18 11:31:27;;;;;;;7.68;3.53;;;13.50;61.20;;;;;;4951700;28;20032;-70
2023/07/18 11:33:56;;;;;;;6.30;2.80;;;13.60;61.00;;;;;;4945091;28;20512;-70
2023/07/18 11:36:29;;;;;;;4.18;2.00;;;13.60;60.00;;;;;;4948725;28;20106;-71
2023/07/18 11:39:00;;;;;;;3.80;1.42;;;13.70;60.50;;;;;;4947698;28;20536;-69
2023/07/18 11:41:39;;;;;;;3.00;1.30;;;13.80;62.20;;;;;;4946477;28;20114;-72
2023/07/18 11:44:09;;;;;;;2.97;1.67;;;14.00;65.00;;;;;;4942687;28;20031;-71
2023/07/18 11:46:46;;;;;;;2.42;1.30;;;14.20;65.90;;;;;;4946141;28;20035;-72
2023/07/18 11:49:15;;;;;;;3.35;1.10;;;14.40;67.00;;;;;;4945099;28;20031;-69
2023/07/18 11:51:43;;;;;;;1.50;1.00;;;14.50;70.80;;;;;;4945750;28;20445;-70
2023/07/18 11:54:10;;;;;;;2.78;1.35;;;14.50;73.10;;;;;;4943290;28;20178;-69
2023/07/18 11:56:38;;;;;;;1.75;0.80;;;14.50;74.30;;;;;;4946933;28;20080;-69
2023/07/18 11:59:05;;;;;;;2.25;1.17;;;14.50;75.30;;;;;;4966323;28;20508;-71
2023/07/18 12:01:34;;;;;;;5.15;1.20;;;14.50;76.40;;;;;;4948371;28;20101;-69
2023/07/18 12:04:10;;;;;;;3.42;0.98;;;14.50;77.80;;;;;;4946933;28;20046;-71
2023/07/18 12:06:38;;;;;;;7.32;1.30;;;14.50;80.00;;;;;;4948717;28;20432;-71
2023/07/18 12:09:06;;;;;;;2.90;1.02;;;14.60;80.10;;;;;;4942040;28;20039;-70
2023/07/18 12:11:34;;;;;;;2.42;1.10;;;14.40;81.60;;;;;;4946262;28;20031;-70
2023/07/18 12:14:04;;;;;;;2.60;0.90;;;14.20;82.60;;;;;;4944767;28;20030;-69
2023/07/18 12:16:31;;;;;;;2.28;1.00;;;14.10;83.40;;;;;;4950524;28;20035;-69
2023/07/18 12:18:59;;;;;;;3.53;1.00;;;14.10;83.90;;;;;;4948298;28;20389;-69
2023/07/18 12:21:26;;;;;;;4.97;0.90;;;14.00;83.80;;;;;;4949452;28;20122;-70
2023/07/18 12:23:53;;;;;;;2.10;1.10;;;13.80;84.20;;;;;;4948513;28;20118;-70
2023/07/18 12:26:21;;;;;;;2.67;0.93;;;13.60;84.50;;;;;;4949951;28;20085;-69
2023/07/18 12:28:48;;;;;;;2.40;1.20;;;13.50;85.30;;;;;;4943684;28;20145;-68
2023/07/18 12:31:15;;;;;;;2.47;1.15;;;13.40;86.20;;;;;;4949771;28;20031;-69
2023/07/18 12:33:43;;;;;;;3.13;1.38;;;13.60;85.40;;;;;;4943406;28;20532;-70
2023/07/18 12:36:12;;;;;;;3.03;1.35;;;13.60;86.10;;;;;;4948003;28;20041;-70
2023/07/18 12:38:39;;;;;;;1.67;0.90;;;13.40;85.90;;;;;;4944332;28;20394;-69
2023/07/18 12:41:07;;;;;;;3.13;1.35;;;13.40;86.50;;;;;;4951348;28;20034;-70
2023/07/18 12:43:40;;;;;;;2.45;1.13;;;13.20;87.20;;;;;;4944461;28;20426;-68
2023/07/18 12:46:07;;;;;;;2.00;1.10;;;13.10;88.20;;;;;;4951430;28;20094;-68
2023/07/18 12:48:35;;;;;;;2.22;1.02;;;13.00;88.40;;;;;;4942928;28;20054;-68
2023/07/18 12:51:06;;;;;;;1.52;1.10;;;12.90;89.10;;;;;;4950455;28;20442;-70